createdAt,value
2023-04-13T00:00:46.481Z,978.56
2023-04-13T00:01:46.524Z,978.53
2023-04-13T00:02:46.647Z,978.56
2023-04-13T00:03:46.634Z,978.45
2023-04-13T00:04:46.450Z,978.44
2023-04-13T00:05:46.733Z,978.49
2023-04-13T00:06:46.415Z,978.38
2023-04-13T00:07:46.412Z,978.49
2023-04-13T00:08:46.393Z,978.51
2023-04-13T00:09:46.404Z,978.48
2023-04-13T00:10:46.394Z,978.41
2023-04-13T00:11:46.368Z,978.40
2023-04-13T00:12:46.364Z,978.42
2023-04-13T00:13:46.357Z,978.51
2023-04-13T00:14:46.348Z,978.46
2023-04-13T00:15:47.466Z,978.47
2023-04-13T00:16:47.480Z,978.49
2023-04-13T00:17:47.580Z,978.48
2023-04-13T00:18:47.549Z,978.47
2023-04-13T00:19:47.439Z,978.36
2023-04-13T00:20:47.429Z,978.39
2023-04-13T00:21:47.413Z,978.37
2023-04-13T00:22:47.400Z,978.44
2023-04-13T00:23:47.379Z,978.42
2023-04-13T00:24:47.409Z,978.32
2023-04-13T00:25:47.378Z,978.44
2023-04-13T00:26:47.390Z,978.40
2023-04-13T00:27:47.350Z,978.39
2023-04-13T00:28:47.334Z,978.40
2023-04-13T00:29:47.343Z,978.34
2023-04-13T00:30:47.420Z,978.36
2023-04-13T00:31:47.318Z,978.37
2023-04-13T00:32:47.316Z,978.38
2023-04-13T00:33:47.306Z,978.39
2023-04-13T00:34:47.305Z,978.37
2023-04-13T00:35:47.268Z,978.44
2023-04-13T00:36:47.267Z,978.44
2023-04-13T00:37:47.319Z,978.33
2023-04-13T00:38:47.260Z,978.40
2023-04-13T00:39:47.252Z,978.41
2023-04-13T00:40:47.240Z,978.43
2023-04-13T00:41:47.218Z,978.39
2023-04-13T00:42:47.229Z,978.55
2023-04-13T00:43:47.202Z,978.39
2023-04-13T00:44:47.201Z,978.42
2023-04-13T00:45:47.286Z,978.35
2023-04-13T00:46:47.256Z,978.30
2023-04-13T00:47:48.272Z,978.33
2023-04-13T00:48:47.151Z,978.41
2023-04-13T00:49:47.159Z,978.37
2023-04-13T00:50:47.143Z,978.37
2023-04-13T00:51:47.101Z,978.38
2023-04-13T00:52:47.133Z,978.38
2023-04-13T00:53:47.084Z,978.48
2023-04-13T00:54:47.090Z,978.43
2023-04-13T00:55:47.068Z,978.35
2023-04-13T00:56:47.059Z,978.38
2023-04-13T00:57:47.075Z,978.29
2023-04-13T00:58:47.041Z,978.31
2023-04-13T00:59:47.072Z,978.39
2023-04-13T01:00:47.055Z,978.40
2023-04-13T01:01:47.132Z,978.41
2023-04-13T01:02:47.055Z,978.45
2023-04-13T01:03:47.012Z,978.53
2023-04-13T01:04:47.005Z,978.45
2023-04-13T01:05:47.009Z,978.38
2023-04-13T01:06:46.961Z,978.38
2023-04-13T01:07:46.948Z,978.35
2023-04-13T01:08:46.952Z,978.47
2023-04-13T01:09:46.941Z,978.37
2023-04-13T01:10:46.952Z,978.40
2023-04-13T01:11:46.925Z,978.38
2023-04-13T01:12:46.898Z,978.31
2023-04-13T01:13:46.936Z,978.29
2023-04-13T01:14:46.952Z,978.26
2023-04-13T01:15:46.909Z,978.29
2023-04-13T01:16:46.866Z,978.24
2023-04-13T01:17:46.919Z,978.29
2023-04-13T01:18:46.837Z,978.29
2023-04-13T01:19:46.859Z,978.32
2023-04-13T01:20:46.866Z,978.21
2023-04-13T01:21:46.873Z,978.22
2023-04-13T01:22:46.829Z,978.30
2023-04-13T01:23:46.821Z,978.30
2023-04-13T01:24:46.843Z,978.32
2023-04-13T01:25:46.794Z,978.21
2023-04-13T01:26:46.812Z,978.31
2023-04-13T01:27:46.787Z,978.26
2023-04-13T01:28:46.793Z,978.14
2023-04-13T01:29:46.776Z,978.15
2023-04-13T01:30:46.768Z,978.17
2023-04-13T01:31:46.759Z,978.26
2023-04-13T01:32:46.839Z,978.28
2023-04-13T01:33:46.740Z,978.18
2023-04-13T01:34:46.733Z,978.18
2023-04-13T01:35:46.718Z,978.23
2023-04-13T01:36:46.698Z,978.26
2023-04-13T01:37:46.696Z,978.22
2023-04-13T01:38:46.696Z,978.17
2023-04-13T01:39:48.333Z,978.14
2023-04-13T01:40:46.639Z,978.27
2023-04-13T01:41:46.659Z,978.33
2023-04-13T01:42:46.632Z,978.19
2023-04-13T01:43:46.624Z,978.15
2023-04-13T01:44:46.629Z,978.19
2023-04-13T01:45:46.599Z,978.26
2023-04-13T01:46:46.619Z,978.22
2023-04-13T01:47:46.691Z,978.31
2023-04-13T01:48:46.576Z,978.19
2023-04-13T01:49:46.608Z,978.18
2023-04-13T01:50:46.543Z,978.20
2023-04-13T01:51:46.535Z,978.18
2023-04-13T01:52:46.553Z,978.24
2023-04-13T01:53:46.509Z,978.22
2023-04-13T01:54:46.563Z,978.15
2023-04-13T01:55:46.552Z,978.19
2023-04-13T01:56:46.482Z,978.37
2023-04-13T01:57:46.482Z,978.27
2023-04-13T01:58:46.482Z,978.25
2023-04-13T01:59:46.543Z,978.17
2023-04-13T02:00:46.474Z,978.24
2023-04-13T02:01:46.457Z,978.22
2023-04-13T02:02:46.584Z,978.36
2023-04-13T02:03:46.465Z,978.27
2023-04-13T02:04:46.475Z,978.17
2023-04-13T02:05:46.402Z,978.17
2023-04-13T02:06:46.410Z,978.20
2023-04-13T02:07:46.395Z,978.17
2023-04-13T02:08:46.408Z,978.20
2023-04-13T02:09:46.398Z,978.17
2023-04-13T02:10:46.357Z,978.13
2023-04-13T02:11:46.344Z,978.07
2023-04-13T02:12:46.364Z,978.13
2023-04-13T02:13:46.342Z,978.11
2023-04-13T02:14:46.349Z,978.19
2023-04-13T02:15:46.302Z,978.21
2023-04-13T02:16:46.363Z,978.17
2023-04-13T02:17:46.361Z,978.19
2023-04-13T02:18:46.286Z,978.30
2023-04-13T02:19:46.278Z,978.16
2023-04-13T02:20:46.261Z,978.24
2023-04-13T02:21:46.251Z,978.18
2023-04-13T02:22:46.251Z,978.15
2023-04-13T02:23:46.217Z,978.22
2023-04-13T02:24:46.233Z,978.13
2023-04-13T02:25:47.687Z,978.30
2023-04-13T02:26:47.171Z,978.15
2023-04-13T02:27:46.221Z,978.10
2023-04-13T02:28:46.180Z,978.13
2023-04-13T02:29:46.211Z,978.17
2023-04-13T02:30:46.174Z,978.27
2023-04-13T02:31:46.168Z,978.26
2023-04-13T02:32:46.202Z,978.28
2023-04-13T02:33:46.153Z,978.37
2023-04-13T02:34:46.144Z,978.32
2023-04-13T02:35:46.131Z,978.29
2023-04-13T02:36:46.092Z,978.31
2023-04-13T02:37:46.079Z,978.38
2023-04-13T02:38:46.069Z,978.42
2023-04-13T02:39:46.081Z,978.29
2023-04-13T02:40:46.059Z,978.37
2023-04-13T02:41:46.064Z,978.29
2023-04-13T02:42:46.031Z,978.29
2023-04-13T02:43:46.030Z,978.25
2023-04-13T02:44:45.997Z,978.30
2023-04-13T02:45:46.053Z,978.36
2023-04-13T02:46:45.978Z,978.32
2023-04-13T02:47:46.010Z,978.34
2023-04-13T02:48:45.953Z,978.29
2023-04-13T02:49:45.947Z,978.33
2023-04-13T02:50:45.990Z,978.24
2023-04-13T02:51:45.940Z,978.24
2023-04-13T02:52:45.929Z,978.22
2023-04-13T02:53:45.917Z,978.22
2023-04-13T02:54:45.910Z,978.29
2023-04-13T02:55:45.896Z,978.22
2023-04-13T02:56:45.875Z,978.28
2023-04-13T02:57:45.861Z,978.34
2023-04-13T02:58:45.869Z,978.46
2023-04-13T02:59:45.855Z,978.40
2023-04-13T03:00:45.863Z,978.30
2023-04-13T03:01:46.043Z,978.33
2023-04-13T03:02:45.982Z,978.27
2023-04-13T03:03:45.847Z,978.33
2023-04-13T03:04:45.829Z,978.43
2023-04-13T03:05:45.799Z,978.36
2023-04-13T03:06:45.791Z,978.39
2023-04-13T03:07:45.800Z,978.39
2023-04-13T03:08:45.792Z,978.37
2023-04-13T03:09:45.753Z,978.40
2023-04-13T03:10:45.742Z,978.40
2023-04-13T03:11:45.780Z,978.42
2023-04-13T03:12:45.715Z,978.40
2023-04-13T03:13:45.687Z,978.41
2023-04-13T03:14:45.697Z,978.37
2023-04-13T03:15:45.699Z,978.38
2023-04-13T03:16:45.723Z,978.35
2023-04-13T03:17:45.790Z,978.32
2023-04-13T03:18:45.650Z,978.29
2023-04-13T03:19:45.659Z,978.37
2023-04-13T03:20:45.643Z,978.45
2023-04-13T03:21:45.607Z,978.42
2023-04-13T03:22:45.621Z,978.40
2023-04-13T03:23:45.610Z,978.36
2023-04-13T03:24:45.582Z,978.44
2023-04-13T03:25:45.594Z,978.37
2023-04-13T03:26:45.563Z,978.41
2023-04-13T03:27:45.563Z,978.39
2023-04-13T03:28:45.548Z,978.39
2023-04-13T03:29:45.537Z,978.32
2023-04-13T03:30:45.589Z,978.32
2023-04-13T03:31:45.599Z,978.34
2023-04-13T03:32:45.580Z,978.41
2023-04-13T03:33:45.538Z,978.30
2023-04-13T03:34:45.569Z,978.48
2023-04-13T03:35:45.498Z,978.40
2023-04-13T03:36:45.489Z,978.43
2023-04-13T03:37:45.443Z,978.38
2023-04-13T03:38:45.457Z,978.40
2023-04-13T03:39:45.443Z,978.35
2023-04-13T03:40:45.436Z,978.38
2023-04-13T03:41:45.413Z,978.43
2023-04-13T03:42:45.386Z,978.34
2023-04-13T03:43:45.399Z,978.32
2023-04-13T03:44:45.394Z,978.34
2023-04-13T03:45:45.375Z,978.45
2023-04-13T03:46:45.462Z,978.34
2023-04-13T03:47:45.416Z,978.44
2023-04-13T03:48:45.342Z,978.41
2023-04-13T03:49:45.348Z,978.46
2023-04-13T03:50:45.327Z,978.46
2023-04-13T03:51:45.317Z,978.57
2023-04-13T03:52:45.307Z,978.40
2023-04-13T03:53:46.285Z,978.53
2023-04-13T03:54:45.377Z,978.53
2023-04-13T03:55:45.305Z,978.48
2023-04-13T03:56:45.256Z,978.48
2023-04-13T03:57:45.253Z,978.47
2023-04-13T03:58:45.249Z,978.40
2023-04-13T03:59:45.213Z,978.45
2023-04-13T04:00:45.251Z,978.46
2023-04-13T04:01:45.262Z,978.53
2023-04-13T04:02:45.291Z,978.41
2023-04-13T04:03:45.293Z,978.56
2023-04-13T04:04:45.291Z,978.44
2023-04-13T04:05:45.184Z,978.46
2023-04-13T04:06:45.181Z,978.48
2023-04-13T04:07:45.162Z,978.48
2023-04-13T04:08:45.169Z,978.54
2023-04-13T04:09:45.132Z,978.64
2023-04-13T04:10:45.144Z,978.58
2023-04-13T04:11:45.139Z,978.61
2023-04-13T04:12:45.093Z,978.63
2023-04-13T04:13:45.093Z,978.56
2023-04-13T04:14:45.114Z,978.49
2023-04-13T04:15:45.086Z,978.48
2023-04-13T04:16:45.095Z,978.58
2023-04-13T04:17:45.047Z,978.54
2023-04-13T04:18:45.056Z,978.61
2023-04-13T04:19:45.019Z,978.58
2023-04-13T04:20:45.044Z,978.55
2023-04-13T04:21:45.045Z,978.57
2023-04-13T04:22:45.018Z,978.67
2023-04-13T04:23:44.987Z,978.53
2023-04-13T04:24:44.974Z,978.59
2023-04-13T04:25:44.940Z,978.62
2023-04-13T04:26:44.949Z,978.62
2023-04-13T04:27:44.975Z,978.60
2023-04-13T04:28:44.920Z,978.57
2023-04-13T04:29:45.928Z,978.63
2023-04-13T04:30:44.921Z,978.67
2023-04-13T04:31:44.921Z,978.71
2023-04-13T04:32:44.959Z,978.66
2023-04-13T04:33:44.895Z,978.76
2023-04-13T04:34:44.867Z,978.72
2023-04-13T04:35:44.893Z,978.77
2023-04-13T04:36:44.861Z,978.76
2023-04-13T04:37:44.854Z,978.79
2023-04-13T04:38:44.832Z,978.76
2023-04-13T04:39:44.829Z,978.77
2023-04-13T04:40:44.893Z,978.78
2023-04-13T04:41:44.823Z,978.85
2023-04-13T04:42:44.783Z,978.90
2023-04-13T04:43:44.782Z,978.77
2023-04-13T04:44:44.758Z,978.76
2023-04-13T04:45:44.801Z,978.78
2023-04-13T04:46:44.744Z,978.86
2023-04-13T04:47:44.896Z,978.87
2023-04-13T04:48:44.736Z,978.89
2023-04-13T04:49:44.749Z,978.82
2023-04-13T04:50:44.741Z,978.84
2023-04-13T04:51:44.737Z,978.88
2023-04-13T04:52:44.700Z,978.83
2023-04-13T04:53:45.698Z,978.86
2023-04-13T04:54:44.662Z,978.86
2023-04-13T04:55:44.652Z,978.83
2023-04-13T04:56:44.629Z,978.86
2023-04-13T04:57:44.625Z,978.90
2023-04-13T04:58:44.608Z,978.91
2023-04-13T04:59:44.647Z,978.99
2023-04-13T05:00:44.596Z,978.93
2023-04-13T05:01:44.653Z,978.89
2023-04-13T05:02:44.635Z,978.97
2023-04-13T05:03:44.586Z,978.93
2023-04-13T05:04:44.577Z,978.85
2023-04-13T05:05:44.717Z,978.93
2023-04-13T05:06:44.619Z,978.84
2023-04-13T05:07:44.532Z,978.86
2023-04-13T05:08:44.507Z,979.03
2023-04-13T05:09:44.529Z,978.83
2023-04-13T05:10:44.507Z,978.89
2023-04-13T05:11:44.496Z,979.04
2023-04-13T05:12:44.498Z,978.95
2023-04-13T05:13:44.480Z,978.90
2023-04-13T05:14:44.448Z,978.91
2023-04-13T05:15:44.487Z,978.94
2023-04-13T05:16:44.444Z,978.93
2023-04-13T05:17:44.446Z,979.01
2023-04-13T05:18:44.466Z,978.99
2023-04-13T05:19:44.415Z,978.96
2023-04-13T05:20:44.408Z,978.99
2023-04-13T05:21:44.384Z,979.02
2023-04-13T05:22:44.459Z,979.03
2023-04-13T05:23:44.361Z,979.07
2023-04-13T05:24:44.369Z,979.06
2023-04-13T05:25:44.354Z,979.01
2023-04-13T05:26:44.338Z,979.05
2023-04-13T05:27:44.380Z,979.05
2023-04-13T05:28:44.347Z,979.11
2023-04-13T05:29:46.229Z,979.01
2023-04-13T05:30:44.325Z,979.11
2023-04-13T05:31:44.351Z,979.07
2023-04-13T05:32:44.294Z,979.21
2023-04-13T05:33:44.267Z,979.07
2023-04-13T05:34:44.266Z,979.07
2023-04-13T05:35:44.236Z,979.13
2023-04-13T05:36:44.290Z,979.10
2023-04-13T05:37:44.244Z,979.23
2023-04-13T05:38:44.219Z,979.15
2023-04-13T05:39:44.234Z,979.17
2023-04-13T05:40:44.199Z,979.27
2023-04-13T05:41:44.243Z,979.22
2023-04-13T05:42:44.209Z,979.16
2023-04-13T05:43:45.194Z,979.16
2023-04-13T05:44:44.194Z,979.14
2023-04-13T05:45:44.278Z,979.25
2023-04-13T05:46:44.177Z,979.14
2023-04-13T05:47:44.206Z,979.20
2023-04-13T05:48:44.131Z,979.18
2023-04-13T05:49:44.149Z,979.35
2023-04-13T05:50:44.179Z,979.19
2023-04-13T05:51:44.160Z,979.25
2023-04-13T05:52:44.084Z,979.26
2023-04-13T05:53:44.150Z,979.23
2023-04-13T05:54:44.069Z,979.26
2023-04-13T05:55:47.456Z,979.22
2023-04-13T05:56:44.060Z,979.22
2023-04-13T05:57:44.099Z,979.21
2023-04-13T05:58:44.038Z,979.34
2023-04-13T05:59:44.026Z,979.28
2023-04-13T06:00:44.073Z,979.29
2023-04-13T06:01:44.024Z,979.32
2023-04-13T06:02:44.213Z,979.31
2023-04-13T06:03:44.157Z,979.30
2023-04-13T06:04:44.013Z,979.32
2023-04-13T06:05:44.016Z,979.32
2023-04-13T06:06:43.982Z,979.36
2023-04-13T06:07:43.961Z,979.29
2023-04-13T06:08:43.920Z,979.38
2023-04-13T06:09:43.937Z,979.36
2023-04-13T06:10:43.948Z,979.40
2023-04-13T06:11:43.961Z,979.42
2023-04-13T06:12:43.898Z,979.48
2023-04-13T06:13:43.882Z,979.42
2023-04-13T06:14:43.852Z,979.50
2023-04-13T06:15:43.887Z,979.39
2023-04-13T06:16:43.936Z,979.46
2023-04-13T06:17:43.873Z,979.39
2023-04-13T06:18:43.835Z,979.41
2023-04-13T06:19:43.846Z,979.43
2023-04-13T06:20:43.831Z,979.43
2023-04-13T06:21:43.812Z,979.42
2023-04-13T06:22:43.786Z,979.37
2023-04-13T06:23:43.785Z,979.36
2023-04-13T06:24:43.746Z,979.37
2023-04-13T06:25:43.750Z,979.46
2023-04-13T06:26:43.783Z,979.44
2023-04-13T06:27:43.784Z,979.39
2023-04-13T06:28:43.793Z,979.45
2023-04-13T06:29:43.750Z,979.49
2023-04-13T06:30:43.745Z,979.44
2023-04-13T06:31:43.738Z,979.47
2023-04-13T06:32:43.791Z,979.40
2023-04-13T06:33:43.696Z,979.38
2023-04-13T06:34:43.646Z,979.46
2023-04-13T06:35:43.722Z,979.48
2023-04-13T06:36:43.711Z,979.46
2023-04-13T06:37:43.744Z,979.43
2023-04-13T06:38:43.654Z,979.45
2023-04-13T06:39:43.637Z,979.43
2023-04-13T06:40:43.741Z,979.47
2023-04-13T06:41:43.704Z,979.56
2023-04-13T06:42:43.611Z,979.46
2023-04-13T06:43:43.615Z,979.49
2023-04-13T06:44:43.637Z,979.43
2023-04-13T06:45:43.603Z,979.56
2023-04-13T06:46:43.607Z,979.47
2023-04-13T06:47:43.602Z,979.45
2023-04-13T06:48:43.542Z,979.53
2023-04-13T06:49:43.631Z,979.56
2023-04-13T06:50:43.507Z,979.45
2023-04-13T06:51:43.525Z,979.48
2023-04-13T06:52:43.474Z,979.48
2023-04-13T06:53:43.485Z,979.47
2023-04-13T06:54:43.517Z,979.48
2023-04-13T06:55:43.458Z,979.50
2023-04-13T06:56:43.470Z,979.52
2023-04-13T06:57:43.532Z,979.39
2023-04-13T06:58:43.436Z,979.48
2023-04-13T06:59:43.484Z,979.50
2023-04-13T07:00:43.406Z,979.49
2023-04-13T07:01:43.511Z,979.52
2023-04-13T07:02:43.584Z,979.59
2023-04-13T07:03:43.459Z,979.64
2023-04-13T07:04:43.632Z,979.44
2023-04-13T07:05:43.396Z,979.63
2023-04-13T07:06:43.362Z,979.64
2023-04-13T07:07:43.327Z,979.75
2023-04-13T07:08:43.387Z,979.70
2023-04-13T07:09:43.322Z,979.61
2023-04-13T07:10:43.400Z,979.66
2023-04-13T07:11:43.332Z,979.67
2023-04-13T07:12:43.308Z,979.70
2023-04-13T07:13:43.313Z,979.71
2023-04-13T07:14:43.368Z,979.69
2023-04-13T07:15:43.251Z,979.71
2023-04-13T07:16:43.280Z,979.68
2023-04-13T07:17:43.342Z,979.71
2023-04-13T07:18:44.350Z,979.62
2023-04-13T07:19:43.212Z,979.75
2023-04-13T07:20:43.236Z,979.87
2023-04-13T07:21:43.203Z,979.74
2023-04-13T07:22:43.258Z,979.80
2023-04-13T07:23:43.229Z,979.91
2023-04-13T07:24:43.193Z,979.76
2023-04-13T07:25:43.223Z,979.80
2023-04-13T07:26:43.194Z,979.79
2023-04-13T07:27:43.173Z,979.75
2023-04-13T07:28:43.129Z,979.79
2023-04-13T07:29:43.154Z,979.85
2023-04-13T07:30:43.263Z,979.74
2023-04-13T07:31:43.185Z,979.81
2023-04-13T07:32:43.127Z,979.85
2023-04-13T07:33:43.144Z,979.74
2023-04-13T07:34:43.128Z,979.84
2023-04-13T07:35:43.110Z,979.79
2023-04-13T07:36:43.097Z,979.83
2023-04-13T07:37:43.176Z,979.82
2023-04-13T07:38:43.227Z,979.84
2023-04-13T07:39:43.049Z,979.99
2023-04-13T07:40:43.087Z,979.81
2023-04-13T07:41:43.029Z,979.94
2023-04-13T07:42:43.096Z,979.89
2023-04-13T07:43:43.097Z,979.95
2023-04-13T07:44:43.025Z,979.91
2023-04-13T07:45:43.009Z,979.86
2023-04-13T07:46:43.149Z,979.95
2023-04-13T07:47:43.040Z,980.06
2023-04-13T07:48:44.474Z,979.95
2023-04-13T07:49:42.932Z,979.93
2023-04-13T07:50:42.908Z,979.96
2023-04-13T07:51:42.979Z,980.01
2023-04-13T07:52:42.914Z,980.16
2023-04-13T07:53:42.898Z,979.99
2023-04-13T07:54:42.888Z,980.00
2023-04-13T07:55:42.901Z,980.12
2023-04-13T07:56:42.844Z,980.00
2023-04-13T07:57:42.882Z,980.06
2023-04-13T07:58:42.861Z,980.04
2023-04-13T07:59:42.873Z,980.04
2023-04-13T08:00:42.826Z,980.06
2023-04-13T08:01:42.854Z,980.05
2023-04-13T08:02:42.973Z,980.14
2023-04-13T08:03:42.957Z,980.11
2023-04-13T08:04:42.827Z,980.08
2023-04-13T08:05:47.055Z,980.04
2023-04-13T08:08:17.359Z,980.03
2023-04-13T08:09:09.717Z,980.16
2023-04-13T08:10:09.747Z,980.04
2023-04-13T08:11:09.725Z,980.07
2023-04-13T08:12:09.727Z,980.08
2023-04-13T08:13:09.700Z,980.12
2023-04-13T08:14:09.736Z,980.17
2023-04-13T08:15:09.661Z,980.23
2023-04-13T08:16:09.721Z,980.28
2023-04-13T08:17:09.700Z,980.16
2023-04-13T08:18:09.657Z,980.07
2023-04-13T08:19:09.653Z,980.12
2023-04-13T08:20:09.688Z,980.13
2023-04-13T08:21:09.695Z,980.15
2023-04-13T08:22:09.677Z,980.15
2023-04-13T08:23:11.244Z,980.17
2023-04-13T08:24:09.743Z,980.12
2023-04-13T08:25:09.676Z,980.16
2023-04-13T08:26:09.566Z,980.09
2023-04-13T08:27:09.600Z,980.14
2023-04-13T08:28:09.610Z,980.23
2023-04-13T08:29:09.576Z,980.32
2023-04-13T08:30:09.710Z,980.20
2023-04-13T08:31:09.526Z,980.16
2023-04-13T08:32:09.599Z,980.28
2023-04-13T08:33:09.492Z,980.31
2023-04-13T08:34:09.501Z,980.16
2023-04-13T08:35:09.500Z,980.31
2023-04-13T08:36:09.452Z,980.20
2023-04-13T08:37:09.483Z,980.28
2023-04-13T08:38:09.467Z,980.19
2023-04-13T08:39:09.435Z,980.21
2023-04-13T08:40:09.447Z,980.18
2023-04-13T08:41:09.432Z,980.38
2023-04-13T08:42:09.447Z,980.32
2023-04-13T08:43:09.409Z,980.29
2023-04-13T08:44:09.831Z,980.26
2023-04-13T08:45:09.599Z,980.22
2023-04-13T08:46:09.524Z,980.22
2023-04-13T08:47:09.323Z,980.38
2023-04-13T08:48:09.405Z,980.25
2023-04-13T08:49:09.340Z,980.37
2023-04-13T08:50:09.396Z,980.34
2023-04-13T08:51:09.324Z,980.45
2023-04-13T08:52:09.330Z,980.29
2023-04-13T08:53:09.344Z,980.40
2023-04-13T08:54:09.314Z,980.27
2023-04-13T08:55:09.282Z,980.34
2023-04-13T08:56:09.268Z,980.37
2023-04-13T08:57:09.340Z,980.41
2023-04-13T08:58:09.259Z,980.45
2023-04-13T08:59:09.252Z,980.38
2023-04-13T09:00:09.201Z,980.47
2023-04-13T09:01:09.254Z,980.34
2023-04-13T09:02:09.355Z,980.44
2023-04-13T09:03:11.763Z,980.39
2023-04-13T09:04:09.278Z,980.37
2023-04-13T09:05:09.366Z,980.53
2023-04-13T09:06:09.134Z,980.52
2023-04-13T09:07:09.310Z,980.37
2023-04-13T09:08:09.132Z,980.41
2023-04-13T09:09:09.145Z,980.37
2023-04-13T09:10:09.103Z,980.49
2023-04-13T09:11:09.145Z,980.50
2023-04-13T09:12:09.086Z,980.38
2023-04-13T09:13:09.085Z,980.46
2023-04-13T09:14:09.051Z,980.53
2023-04-13T09:15:09.065Z,980.50
2023-04-13T09:16:09.122Z,980.39
2023-04-13T09:17:09.133Z,980.42
2023-04-13T09:18:44.325Z,980.47
2023-04-13T09:19:09.044Z,980.51
2023-04-13T09:20:09.260Z,980.44
2023-04-13T09:21:08.986Z,980.49
2023-04-13T09:22:09.008Z,980.45
2023-04-13T09:23:10.379Z,980.48
2023-04-13T09:24:08.959Z,980.42
2023-04-13T09:25:08.988Z,980.38
2023-04-13T09:26:09.001Z,980.46
2023-04-13T09:27:08.946Z,980.47
2023-04-13T09:28:08.967Z,980.49
2023-04-13T09:29:10.147Z,980.48
2023-04-13T09:30:11.749Z,980.47
2023-04-13T09:31:09.124Z,980.53
2023-04-13T09:32:08.897Z,980.54
2023-04-13T09:33:08.969Z,980.52
2023-04-13T09:34:08.858Z,980.53
2023-04-13T09:35:09.110Z,980.61
2023-04-13T09:36:08.892Z,980.58
2023-04-13T09:37:08.920Z,980.55
2023-04-13T09:38:08.847Z,980.55
2023-04-13T09:39:08.825Z,980.59
2023-04-13T09:40:08.819Z,980.64
2023-04-13T09:41:08.784Z,980.46
2023-04-13T09:42:08.780Z,980.41
2023-04-13T09:43:08.768Z,980.53
2023-04-13T09:44:08.745Z,980.47
2023-04-13T09:45:08.751Z,980.47
2023-04-13T09:46:08.744Z,980.52
2023-04-13T09:47:08.748Z,980.65
2023-04-13T09:48:08.796Z,980.57
2023-04-13T09:49:09.611Z,980.60
2023-04-13T09:50:08.731Z,980.59
2023-04-13T09:51:08.757Z,980.53
2023-04-13T09:52:08.709Z,980.54
2023-04-13T09:53:08.680Z,980.60
2023-04-13T09:54:08.668Z,980.58
2023-04-13T09:55:08.732Z,980.52
2023-04-13T09:56:08.608Z,980.60
2023-04-13T09:57:08.589Z,980.65
2023-04-13T09:58:08.566Z,980.68
2023-04-13T09:59:08.549Z,980.59
2023-04-13T10:00:08.552Z,980.67
2023-04-13T10:01:08.560Z,980.60
2023-04-13T10:02:08.610Z,980.61
2023-04-13T10:03:08.644Z,980.59
2023-04-13T10:04:08.507Z,980.62
2023-04-13T10:05:08.495Z,980.64
2023-04-13T10:06:08.498Z,980.67
2023-04-13T10:07:08.494Z,980.72
2023-04-13T10:08:08.466Z,980.71
2023-04-13T10:09:08.454Z,980.60
2023-04-13T10:10:08.440Z,980.64
2023-04-13T10:11:08.432Z,980.67
2023-04-13T10:12:08.444Z,980.66
2023-04-13T10:13:08.463Z,980.84
2023-04-13T10:14:08.420Z,980.72
2023-04-13T10:15:08.390Z,980.70
2023-04-13T10:16:08.386Z,980.75
2023-04-13T10:17:08.406Z,980.69
2023-04-13T10:18:08.422Z,980.74
2023-04-13T10:19:08.343Z,980.77
2023-04-13T10:20:08.353Z,980.68
2023-04-13T10:21:08.350Z,980.73
2023-04-13T10:22:09.375Z,980.78
2023-04-13T10:23:09.315Z,980.77
2023-04-13T10:25:10.802Z,980.73
2023-04-13T10:26:10.279Z,980.87
2023-04-13T10:27:08.287Z,980.77
2023-04-13T10:28:08.257Z,980.71
2023-04-13T10:29:08.267Z,980.71
2023-04-13T10:30:08.240Z,980.72
2023-04-13T10:31:08.248Z,980.83
2023-04-13T10:32:08.377Z,980.70
2023-04-13T10:33:08.288Z,980.73
2023-04-13T10:34:08.214Z,980.78
2023-04-13T10:35:08.183Z,980.71
2023-04-13T10:36:08.177Z,980.74
2023-04-13T10:37:08.159Z,980.78
2023-04-13T10:38:08.183Z,980.68
2023-04-13T10:39:08.144Z,980.83
2023-04-13T10:40:08.189Z,980.76
2023-04-13T10:41:11.994Z,980.78
2023-04-13T10:42:09.239Z,980.80
2023-04-13T10:43:08.276Z,980.83
2023-04-13T10:44:08.151Z,980.75
2023-04-13T10:45:08.152Z,980.76
2023-04-13T10:46:08.137Z,980.83
2023-04-13T10:47:08.165Z,980.83
2023-04-13T10:48:08.184Z,980.81
2023-04-13T10:49:08.143Z,980.91
2023-04-13T10:50:08.108Z,980.81
2023-04-13T10:51:08.106Z,980.86
2023-04-13T10:52:08.288Z,980.92
2023-04-13T10:53:08.140Z,980.77
2023-04-13T10:54:08.078Z,980.86
2023-04-13T10:55:08.031Z,980.87
2023-04-13T10:56:08.030Z,980.86
2023-04-13T10:57:08.052Z,980.88
2023-04-13T10:58:08.054Z,981.01
2023-04-13T10:59:07.997Z,980.81
2023-04-13T11:00:07.995Z,980.95
2023-04-13T11:01:07.985Z,980.91
2023-04-13T11:02:08.163Z,980.87
2023-04-13T11:03:08.081Z,980.97
2023-04-13T11:04:11.100Z,980.94
2023-04-13T11:05:09.954Z,980.95
2023-04-13T11:06:07.929Z,980.98
2023-04-13T11:07:07.985Z,981.09
2023-04-13T11:08:07.950Z,980.90
2023-04-13T11:09:08.636Z,980.98
2023-04-13T11:10:07.933Z,981.02
2023-04-13T11:11:07.984Z,980.94
2023-04-13T11:12:07.905Z,981.05
2023-04-13T11:13:07.891Z,981.00
2023-04-13T11:14:07.915Z,980.94
2023-04-13T11:15:07.844Z,980.91
2023-04-13T11:16:07.864Z,980.94
2023-04-13T11:17:07.917Z,980.97
2023-04-13T11:18:07.888Z,980.94
2023-04-13T11:19:07.819Z,980.96
2023-04-13T11:20:07.818Z,981.00
2023-04-13T11:21:08.876Z,980.94
2023-04-13T11:22:13.236Z,980.89
2023-04-13T11:23:08.811Z,980.96
2023-04-13T11:24:07.816Z,980.99
2023-04-13T11:25:07.838Z,981.03
2023-04-13T11:26:07.804Z,980.94
2023-04-13T11:27:07.743Z,980.93
2023-04-13T11:28:07.741Z,980.97
2023-04-13T11:29:07.739Z,980.93
2023-04-13T11:30:07.766Z,980.96
2023-04-13T11:31:07.767Z,981.00
2023-04-13T11:32:07.718Z,981.00
2023-04-13T11:33:07.772Z,981.03
2023-04-13T11:34:07.726Z,980.92
2023-04-13T11:35:07.683Z,981.03
2023-04-13T11:36:07.664Z,980.97
2023-04-13T11:37:07.675Z,980.93
2023-04-13T11:38:07.642Z,980.87
2023-04-13T11:39:10.066Z,980.81
2023-04-13T11:40:07.625Z,980.79
2023-04-13T11:41:15.631Z,980.87
2023-04-13T11:42:09.581Z,980.95
2023-04-13T11:43:07.616Z,980.85
2023-04-13T11:44:07.630Z,980.82
2023-04-13T11:45:08.286Z,980.83
2023-04-13T11:46:07.638Z,980.90
2023-04-13T11:47:07.612Z,980.82
2023-04-13T11:48:07.573Z,980.79
2023-04-13T11:49:07.549Z,980.90
2023-04-13T11:50:07.930Z,980.80
2023-04-13T11:56:37.209Z,980.78
2023-04-13T11:57:22.617Z,980.86
2023-04-13T11:58:19.176Z,980.75
2023-04-13T11:59:39.089Z,980.70
2023-04-13T12:03:30.391Z,980.65
2023-04-13T12:04:16.206Z,980.76
2023-04-13T12:05:13.096Z,980.73
2023-04-13T12:06:13.437Z,980.75
2023-04-13T12:07:13.864Z,980.85
2023-04-13T12:08:13.333Z,980.68
2023-04-13T12:09:15.736Z,980.73
2023-04-13T12:11:39.402Z,980.72
2023-04-13T12:14:17.880Z,980.75
2023-04-13T12:15:34.051Z,980.70
2023-04-13T12:18:15.870Z,980.70
2023-04-13T12:19:13.870Z,980.84
2023-04-13T12:20:12.821Z,980.83
2023-04-13T12:21:13.661Z,980.79
2023-04-13T12:22:13.874Z,980.79
2023-04-13T12:23:21.994Z,980.81
2023-04-13T12:24:14.618Z,980.84
2023-04-13T12:25:14.043Z,980.77
2023-04-13T12:28:12.677Z,980.81
2023-04-13T12:29:12.638Z,980.77
2023-04-13T12:30:12.631Z,980.85
2023-04-13T12:31:12.688Z,980.89
2023-04-13T12:32:12.595Z,980.89
2023-04-13T12:33:12.602Z,980.88
2023-04-13T12:34:12.599Z,981.01
2023-04-13T12:35:12.570Z,981.18
2023-04-13T12:36:12.607Z,981.13
2023-04-13T12:37:12.546Z,981.15
2023-04-13T12:38:12.557Z,981.15
2023-04-13T12:39:12.517Z,981.17
2023-04-13T12:40:12.521Z,981.11
2023-04-13T12:41:12.528Z,981.16
2023-04-13T12:42:12.493Z,981.16
2023-04-13T12:43:12.487Z,981.16
2023-04-13T12:44:12.473Z,981.22
2023-04-13T12:45:12.472Z,981.19
2023-04-13T12:46:12.447Z,981.26